Terminal Aerodrome Forecast
Issued by NWS

Home | Current Version | Previous Version | Text Only | Print | Product List | Glossary On
Versions: 1 2 3 4 5 6 7 8 9 10 11 12 13 14 15
000
FTUS43 KGRB 310500
TAFMTW
TAF
KMTW 310520Z 3106/0106 22004KT 6SM BR SCT040 BKN100
     FM310800 24003KT 5SM BR SCT080
     FM311400 27006KT P6SM SCT040 SCT100
     FM311900 15007KT P6SM SCT100=

USA.gov is the U.S. government's official web portal to all federal, state and local government web resources and services.